Time;durP1;ratioP1;P1;durP2;ratioP2;P2;SDS_P1;SDS_P2;PMS_P1;PMS_P2;Temp;Humidity;BMP_temperature;BMP_pressure;BME280_temperature;BME280_humidity;BME280_pressure;Samples;Min_cycle;Max_cycle;Signal;HPM_P1;HPM_P2
2022/01/15 00:03:16;;;;;;;19.85;8.68;;;;;;;3.19;77.15;99439.25;4519736;31;323191;-83
2022/01/15 00:05:41;;;;;;;24.63;10.45;;;;;;;3.19;77.15;99439.25;4514814;31;20125;-84
2022/01/15 00:08:06;;;;;;;22.95;10.20;;;;;;;3.45;74.30;99449.31;4514676;31;20144;-84
2022/01/15 00:10:32;;;;;;;21.95;8.98;;;;;;;3.93;71.74;99447.66;4514744;31;20115;-84
2022/01/15 00:12:59;;;;;;;23.98;10.25;;;;;;;4.17;69.99;99449.84;4514668;31;20092;-84
2022/01/15 00:15:32;;;;;;;22.65;10.10;;;;;;;4.49;68.59;99438.84;4514726;31;20108;-84
2022/01/15 00:18:05;;;;;;;22.17;10.02;;;;;;;4.33;68.68;99448.69;4501193;31;20092;-84
2022/01/15 00:20:32;;;;;;;22.87;10.13;;;;;;;4.22;68.99;99450.66;4514784;31;20160;-84
2022/01/15 00:22:58;;;;;;;19.15;8.23;;;;;;;4.39;68.37;99461.63;4514664;31;20511;-84
2022/01/15 00:25:26;;;;;;;22.15;9.27;;;;;;;4.40;68.27;99465.09;4500180;31;20107;-84
2022/01/15 00:27:52;;;;;;;20.45;9.15;;;;;;;4.47;68.09;99475.37;4487317;31;20514;-84
2022/01/15 00:30:18;;;;;;;22.95;9.75;;;;;;;4.58;67.65;99474.31;4514936;31;20083;-84
2022/01/15 00:32:45;;;;;;;23.30;9.82;;;;;;;4.60;67.36;99467.34;4514764;31;20108;-84
2022/01/15 00:35:17;;;;;;;21.48;10.05;;;;;;;4.68;66.79;99461.06;4500389;31;20150;-84
2022/01/15 00:37:43;;;;;;;20.77;9.30;;;;;;;4.69;66.73;99473.25;4514825;31;20109;-84
2022/01/15 00:40:12;;;;;;;23.70;9.73;;;;;;;4.60;67.13;99476.00;4514824;31;20118;-84
2022/01/15 00:42:39;;;;;;;22.40;9.02;;;;;;;4.58;66.98;99474.31;4514443;31;20118;-84
2022/01/15 00:45:09;;;;;;;20.15;9.05;;;;;;;4.69;67.09;99461.91;4500121;31;20111;-84
2022/01/15 00:47:34;;;;;;;20.65;9.18;;;;;;;4.60;67.22;99480.38;4500321;31;20107;-84
2022/01/15 00:50:01;;;;;;;17.48;7.82;;;;;;;4.67;66.78;99485.44;4514442;31;20095;-85
2022/01/15 00:52:26;;;;;;;20.23;8.65;;;;;;;4.56;67.18;99468.25;4514606;31;20443;-84
2022/01/15 00:54:52;;;;;;;22.23;9.43;;;;;;;4.73;66.42;99481.84;4514402;31;20095;-84
2022/01/15 00:57:18;;;;;;;19.40;8.48;;;;;;;4.80;66.33;99491.28;4514425;31;20113;-84
2022/01/15 00:59:43;;;;;;;19.58;8.45;;;;;;;4.62;66.81;99505.56;4514720;31;20399;-84
2022/01/15 01:02:08;;;;;;;17.98;8.63;;;;;;;4.56;67.44;99489.13;4514379;31;20080;-85
2022/01/15 01:04:34;;;;;;;19.37;8.75;;;;;;;4.59;67.16;99497.78;4500196;31;20100;-85
2022/01/15 01:06:59;;;;;;;21.65;9.15;;;;;;;4.71;66.83;99512.31;4514559;31;20079;-85
2022/01/15 01:09:31;;;;;;;22.35;8.85;;;;;;;4.68;66.72;99523.69;4514565;31;20132;-85
2022/01/15 01:12:09;;;;;;;19.02;8.23;;;;;;;4.76;66.57;99509.66;4514597;31;20443;-85
2022/01/15 01:20:10;;;;;;;18.37;8.27;;;;;;;5.09;65.07;99514.19;4503780;31;20234;-84
2022/01/15 01:25:21;;;;;;;20.85;8.85;;;;;;;4.93;65.66;99534.53;4503632;31;20175;-84
2022/01/15 01:27:51;;;;;;;18.45;8.43;;;;;;;4.67;66.43;99540.22;4489520;31;20092;-85
2022/01/15 01:30:32;;;;;;;18.60;7.70;;;;;;;4.79;66.19;99531.34;4503714;31;20080;-85
2022/01/15 01:33:14;;;;;;;18.35;8.07;;;;;;;4.80;66.09;99524.34;4477695;31;20101;-85
2022/01/15 01:35:44;;;;;;;18.17;8.13;;;;;;;4.70;66.22;99521.91;4489200;31;20100;-84
2022/01/15 01:38:26;;;;;;;19.20;7.87;;;;;;;4.53;66.79;99516.16;4503572;31;20083;-84
2022/01/15 01:40:52;;;;;;;18.00;7.87;;;;;;;4.62;66.39;99520.34;4503494;31;20076;-84
2022/01/15 01:45:48;;;;;;;16.80;7.50;;;;;;;4.66;65.81;99512.44;4503558;31;20400;-85
2022/01/15 01:48:13;;;;;;;18.77;7.90;;;;;;;4.71;65.78;99514.94;4503517;31;20476;-85
2022/01/15 01:50:39;;;;;;;19.08;8.55;;;;;;;5.02;64.73;99515.22;4475860;31;20140;-85
2022/01/15 01:53:04;;;;;;;19.35;7.90;;;;;;;5.03;64.23;99519.53;4503416;31;20108;-85
2022/01/15 01:55:30;;;;;;;17.98;8.30;;;;;;;5.19;63.80;99525.31;4503391;31;20118;-85
2022/01/15 01:57:57;;;;;;;20.08;7.97;;;;;;;5.23;63.65;99526.09;4503571;31;20134;-85
2022/01/15 02:00:24;;;;;;;18.65;7.85;;;;;;;5.19;63.89;99514.84;4503416;31;20107;-85
2022/01/15 02:02:51;;;;;;;17.98;7.90;;;;;;;5.22;63.64;99516.56;4488825;31;20124;-85
2022/01/15 02:05:17;;;;;;;19.48;7.90;;;;;;;5.32;63.18;99511.09;4503337;31;20148;-86
2022/01/15 02:07:44;;;;;;;19.40;8.23;;;;;;;5.29;63.32;99512.91;4503320;31;20083;-85
2022/01/15 02:10:13;;;;;;;18.10;8.00;;;;;;;5.24;63.52;99509.56;4503558;31;20091;-86
2022/01/15 02:12:38;;;;;;;19.33;8.63;;;;;;;5.36;63.16;99508.41;4489460;31;20160;-85
2022/01/15 02:15:09;;;;;;;18.65;7.53;;;;;;;5.34;63.16;99505.84;4503324;31;20148;-85
2022/01/15 02:17:36;;;;;;;18.48;8.05;;;;;;;5.03;63.89;99497.78;4503286;31;20114;-85
2022/01/15 02:25:47;;;;;;;18.37;8.10;;;;;;;5.06;64.03;99495.97;4422232;32;20191;-84
2022/01/15 02:28:13;;;;;;;;;;;;;;;4.96;64.35;99510.09;4423467;32;20536;-85
2022/01/15 02:30:39;;;;;;;16.45;7.37;;;;;;;4.85;64.91;99504.25;4410346;32;19989;-86
2022/01/15 02:33:08;;;;;;;17.02;7.60;;;;;;;4.75;65.17;99506.16;4423067;32;20106;-85
2022/01/15 02:35:34;;;;;;;18.70;7.62;;;;;;;4.67;65.69;99502.84;4423090;32;20401;-85
2022/01/15 02:38:07;;;;;;;17.15;7.35;;;;;;;4.66;65.63;99499.38;4423095;32;20152;-86
2022/01/15 02:40:36;;;;;;;17.90;7.68;;;;;;;4.70;65.57;99498.44;4410278;32;20128;-85
2022/01/15 02:43:03;;;;;;;18.98;7.18;;;;;;;4.55;66.08;99506.53;4422850;32;20695;-85
2022/01/15 02:45:32;;;;;;;16.55;7.05;;;;;;;4.39;66.64;99502.50;4423032;32;20101;-85
2022/01/15 02:48:00;;;;;;;19.08;7.78;;;;;;;4.28;67.24;99494.88;4422907;32;20117;-85
2022/01/15 02:50:26;;;;;;;19.10;7.43;;;;;;;4.43;66.84;99478.09;4410430;32;20167;-85
2022/01/15 02:52:51;;;;;;;16.55;7.53;;;;;;;4.46;66.65;99481.50;4409992;32;20121;-85
2022/01/15 02:55:16;;;;;;;18.67;7.12;;;;;;;4.34;66.94;99472.12;4409834;32;20113;-85
2022/01/15 02:57:42;;;;;;;17.92;7.12;;;;;;;4.48;66.80;99487.56;4422786;32;20516;-86
2022/01/15 03:00:08;;;;;;;16.55;7.57;;;;;;;4.47;66.70;99485.81;4463229;31;20426;-86
2022/01/15 03:02:33;;;;;;;18.95;7.62;;;;;;;4.50;66.73;99475.34;4502730;31;20747;-85
2022/01/15 03:04:59;;;;;;;17.35;7.00;;;;;;;4.56;66.33;99470.88;4502925;31;20108;-86
2022/01/15 03:07:25;;;;;;;17.98;7.30;;;;;;;4.24;67.49;99472.34;4488461;31;20084;-86
2022/01/15 03:09:50;;;;;;;16.67;7.40;;;;;;;4.04;68.09;99457.06;4502984;31;20118;-86
2022/01/15 03:12:16;;;;;;;18.02;7.40;;;;;;;4.21;67.53;99462.84;4488392;31;20127;-85
2022/01/15 03:14:44;;;;;;;15.85;6.50;;;;;;;4.22;67.22;99468.91;4502867;31;20405;-85
2022/01/15 03:17:09;;;;;;;18.25;7.03;;;;;;;4.44;66.43;99459.81;4488969;31;20088;-86
2022/01/15 03:19:35;;;;;;;16.10;5.85;;;;;;;4.45;66.26;99460.66;4502561;31;20413;-86
2022/01/15 03:22:00;;;;;;;16.30;6.80;;;;;;;4.46;66.04;99460.63;4488316;31;20104;-86
2022/01/15 03:24:26;;;;;;;14.38;5.87;;;;;;;4.50;65.79;99471.84;4502766;31;20088;-86
2022/01/15 03:26:51;;;;;;;19.67;7.25;;;;;;;4.26;66.60;99486.22;4502697;31;20092;-85
2022/01/15 03:29:16;;;;;;;17.15;6.30;;;;;;;4.09;66.81;99474.31;4488456;31;20110;-86
2022/01/15 03:31:42;;;;;;;16.25;6.28;;;;;;;4.34;66.44;99490.37;4502433;31;20119;-85
2022/01/15 03:34:07;;;;;;;17.90;6.78;;;;;;;4.44;65.66;99483.28;4502661;31;20371;-86
2022/01/15 03:36:33;;;;;;;17.95;7.20;;;;;;;4.45;65.67;99492.81;4502239;31;20801;-86
2022/01/15 03:38:58;;;;;;;18.83;6.80;;;;;;;4.61;65.08;99490.78;4502468;31;20092;-85
2022/01/15 03:41:24;;;;;;;17.40;6.72;;;;;;;4.70;64.75;99497.56;4502535;31;20100;-86
2022/01/15 03:43:49;;;;;;;17.50;7.00;;;;;;;4.67;64.50;99489.78;4502488;31;20355;-86
2022/01/15 03:46:15;;;;;;;16.73;6.15;;;;;;;4.57;64.70;99481.28;4502527;31;20099;-84
2022/01/15 03:48:40;;;;;;;14.82;6.50;;;;;;;4.57;64.66;99480.44;4488083;31;20084;-85
2022/01/15 03:51:05;;;;;;;18.05;7.00;;;;;;;4.75;63.69;99492.25;4502409;31;20100;-86
2022/01/15 03:53:31;;;;;;;16.05;6.32;;;;;;;4.46;64.88;99504.97;4502564;31;20088;-87
2022/01/15 03:55:56;;;;;;;16.30;6.65;;;;;;;4.63;64.26;99502.03;4502437;31;20106;-86
2022/01/15 03:58:22;;;;;;;17.12;6.75;;;;;;;4.63;64.21;99496.81;4502336;31;20076;-86
2022/01/15 04:00:48;;;;;;;18.05;7.70;;;;;;;4.65;64.13;99502.88;4502215;31;20165;-85
2022/01/15 04:03:14;;;;;;;18.55;7.20;;;;;;;4.38;65.18;99517.28;4485534;32;20117;-86
2022/01/15 04:05:39;;;;;;;15.82;6.43;;;;;;;4.33;65.09;99524.34;4486763;31;20140;-85
2022/01/15 04:08:06;;;;;;;18.80;6.85;;;;;;;4.40;64.82;99520.72;4485456;32;20110;-84
2022/01/15 04:10:32;;;;;;;17.92;7.07;;;;;;;4.19;65.50;99524.59;4486676;31;20152;-84
2022/01/15 04:12:58;;;;;;;16.02;6.78;;;;;;;4.29;65.32;99527.91;4486745;31;20341;-84
2022/01/15 04:15:25;;;;;;;18.35;6.62;;;;;;;4.24;65.61;99535.78;4486237;31;20461;-86
2022/01/15 04:17:50;;;;;;;16.43;6.20;;;;;;;4.38;65.20;99539.91;4486295;31;20118;-85
2022/01/15 04:20:19;;;;;;;18.65;6.93;;;;;;;4.41;64.81;99532.03;4486187;31;20180;-85
2022/01/15 04:22:45;;;;;;;16.87;6.40;;;;;;;4.43;64.68;99531.13;4486254;31;20115;-84
2022/01/15 04:25:10;;;;;;;16.15;6.87;;;;;;;4.19;65.07;99542.84;4486184;31;20073;-84
2022/01/15 04:27:37;;;;;;;14.77;6.32;;;;;;;4.33;64.74;99533.03;4486125;31;20076;-85
2022/01/15 04:30:04;;;;;;;15.70;6.28;;;;;;;4.38;64.59;99539.91;4486139;31;20092;-85
2022/01/15 04:32:30;;;;;;;18.05;6.60;;;;;;;4.35;64.40;99543.44;4484931;32;20496;-84
2022/01/15 04:34:56;;;;;;;14.65;6.00;;;;;;;4.17;65.10;99535.91;4486190;31;20115;-84
2022/01/15 04:37:22;;;;;;;17.42;6.55;;;;;;;4.21;64.83;99548.88;4486047;31;20072;-85
2022/01/15 04:39:48;;;;;;;16.87;6.65;;;;;;;4.30;64.68;99555.69;4485921;31;20092;-84
2022/01/15 04:42:15;;;;;;;14.07;5.80;;;;;;;4.00;65.52;99538.78;4485880;31;20149;-85
2022/01/15 04:44:41;;;;;;;15.32;6.57;;;;;;;4.13;64.93;99537.69;4484855;32;20352;-85
2022/01/15 04:47:07;;;;;;;17.87;6.60;;;;;;;4.18;64.83;99541.09;4486032;32;20169;-85
2022/01/15 04:49:32;;;;;;;17.25;6.35;;;;;;;3.99;65.18;99548.34;4487668;31;20362;-86
2022/01/15 04:51:58;;;;;;;17.42;6.72;;;;;;;4.07;65.09;99549.09;4488075;31;20096;-85
2022/01/15 04:54:24;;;;;;;17.90;7.07;;;;;;;3.97;65.61;99550.13;4486811;32;20491;-86
2022/01/15 04:56:49;;;;;;;16.65;7.20;;;;;;;3.94;65.59;99552.81;4488106;31;20128;-86
2022/01/15 04:59:14;;;;;;;19.27;7.22;;;;;;;3.92;65.87;99554.53;4487887;31;20096;-86
2022/01/15 05:01:40;;;;;;;16.15;6.43;;;;;;;3.94;65.62;99553.66;4493063;31;20111;-86
2022/01/15 05:04:06;;;;;;;15.95;6.72;;;;;;;4.03;65.51;99562.22;4503743;31;20080;-85
2022/01/15 05:06:31;;;;;;;17.52;6.57;;;;;;;4.05;65.37;99557.84;4503655;31;20431;-86
2022/01/15 05:09:04;;;;;;;18.20;7.18;;;;;;;3.87;66.01;99561.59;4489311;31;20096;-85
2022/01/15 05:11:43;;;;;;;15.55;6.25;;;;;;;3.87;65.80;99553.78;4503707;31;20435;-86
2022/01/15 05:14:09;;;;;;;17.17;6.32;;;;;;;4.10;64.83;99567.31;4490795;31;20325;-87
2022/01/15 05:16:34;;;;;;;17.62;6.32;;;;;;;4.17;64.53;99565.44;4488947;31;20084;-87
2022/01/15 05:19:00;;;;;;;15.98;6.28;;;;;;;4.32;63.99;99562.59;4503763;31;20189;-87
2022/01/15 05:21:25;;;;;;;15.30;5.80;;;;;;;4.24;64.06;99564.47;4503508;31;20080;-86
2022/01/15 05:23:50;;;;;;;15.48;5.95;;;;;;;4.18;64.05;99558.50;4503636;31;20110;-87
2022/01/15 05:26:16;;;;;;;13.73;5.78;;;;;;;4.13;64.00;99563.78;4503560;31;20465;-86
2022/01/15 05:28:41;;;;;;;17.15;5.87;;;;;;;4.02;64.29;99558.75;4503631;31;20092;-85
2022/01/15 05:31:07;;;;;;;14.95;5.87;;;;;;;4.17;63.72;99565.44;4503546;31;20156;-85
2022/01/15 05:33:33;;;;;;;16.17;6.15;;;;;;;4.25;63.22;99566.22;4503521;31;20335;-86
2022/01/15 05:35:59;;;;;;;14.87;5.55;;;;;;;4.30;63.01;99564.38;4489398;31;20072;-85
2022/01/15 05:38:25;;;;;;;14.77;5.37;;;;;;;4.17;63.26;99562.84;4489154;31;20171;-85
2022/01/15 05:40:50;;;;;;;14.63;5.45;;;;;;;4.05;63.36;99568.25;4503373;31;20084;-85
2022/01/15 05:43:15;;;;;;;15.60;6.10;;;;;;;4.13;63.14;99569.00;4503545;31;20136;-85
2022/01/15 05:45:45;;;;;;;18.52;6.25;;;;;;;3.97;63.58;99575.34;4503411;31;20080;-85
2022/01/15 05:48:10;;;;;;;14.90;5.45;;;;;;;3.79;64.18;99576.47;4503401;31;20128;-84
2022/01/15 05:50:36;;;;;;;15.27;5.68;;;;;;;3.83;64.06;99589.44;4503477;31;20114;-86
2022/01/15 05:53:02;;;;;;;14.05;5.85;;;;;;;3.60;64.77;99584.53;4488995;31;20152;-85
2022/01/15 05:55:27;;;;;;;16.65;5.80;;;;;;;3.72;64.39;99594.78;4475712;31;20079;-84
2022/01/15 05:57:52;;;;;;;13.68;5.32;;;;;;;4.00;63.41;99584.00;4503385;31;20084;-85
2022/01/15 06:00:18;;;;;;;15.23;5.90;;;;;;;4.10;62.94;99588.16;4503146;31;20107;-85
2022/01/15 06:02:43;;;;;;;16.35;5.22;;;;;;;4.11;63.01;99595.13;4503157;31;20111;-83
2022/01/15 06:05:09;;;;;;;15.73;5.35;;;;;;;3.67;64.21;99601.81;4503424;31;20093;-84
2022/01/15 06:07:34;;;;;;;15.30;5.87;;;;;;;3.33;65.37;99597.03;4488912;31;20352;-85
2022/01/15 06:10:00;;;;;;;16.65;6.00;;;;;;;3.52;64.99;99607.25;4503326;31;20089;-84
2022/01/15 06:12:31;;;;;;;16.10;6.15;;;;;;;3.71;64.31;99600.91;4489025;31;20457;-83
2022/01/15 06:14:57;;;;;;;14.87;5.72;;;;;;;3.57;64.67;99600.19;4503166;31;20064;-84
2022/01/15 06:17:22;;;;;;;14.63;5.75;;;;;;;3.77;63.97;99599.06;4488933;31;20142;-85
2022/01/15 06:19:47;;;;;;;13.43;5.57;;;;;;;3.67;64.09;99603.53;4503304;31;20088;-84
2022/01/15 06:22:13;;;;;;;16.23;5.65;;;;;;;4.03;62.99;99603.91;4503075;31;20104;-85
2022/01/15 06:24:38;;;;;;;14.87;5.10;;;;;;;3.99;62.94;99617.88;4488820;31;20133;-85
2022/01/15 06:27:04;;;;;;;14.90;5.57;;;;;;;3.70;63.77;99613.94;4503082;31;20120;-84
2022/01/15 06:29:30;;;;;;;16.15;6.22;;;;;;;3.80;63.71;99607.72;4503225;31;20092;-85
2022/01/15 06:31:55;;;;;;;15.75;5.55;;;;;;;4.02;62.86;99608.28;4488842;31;20414;-85
2022/01/15 06:34:21;;;;;;;15.80;5.97;;;;;;;4.00;62.85;99607.44;4503162;31;20106;-86
2022/01/15 06:36:47;;;;;;;23.38;6.32;;;;;;;3.85;63.19;99607.66;4503107;31;20100;-85
2022/01/15 06:39:12;;;;;;;14.55;5.72;;;;;;;3.88;63.26;99615.44;4503110;31;20118;-85
2022/01/15 06:41:37;;;;;;;15.98;5.45;;;;;;;3.76;63.58;99615.59;4488675;31;20080;-85
2022/01/15 06:44:03;;;;;;;14.90;5.35;;;;;;;3.45;64.44;99613.41;4503049;31;20110;-85
2022/01/15 06:46:28;;;;;;;19.02;5.75;;;;;;;3.56;64.04;99621.09;4502976;31;20440;-85
2022/01/15 06:48:54;;;;;;;14.20;5.80;;;;;;;3.72;63.62;99617.38;4502990;31;20115;-85
2022/01/15 06:51:19;;;;;;;16.58;5.43;;;;;;;3.73;63.38;99627.78;4502998;31;20341;-84
2022/01/15 06:53:45;;;;;;;17.08;5.47;;;;;;;3.79;63.13;99624.25;4502917;31;20088;-85
2022/01/15 06:56:10;;;;;;;15.38;5.15;;;;;;;3.73;63.32;99619.97;4502871;31;20084;-85
2022/01/15 06:58:36;;;;;;;13.95;4.82;;;;;;;3.83;62.81;99625.94;4502828;31;20106;-86
2022/01/15 07:01:01;;;;;;;16.12;5.75;;;;;;;3.87;62.77;99630.22;4502671;31;20060;-85
2022/01/15 07:03:27;;;;;;;14.15;5.35;;;;;;;3.86;62.74;99627.63;4502921;31;20069;-84
2022/01/15 07:05:52;;;;;;;14.35;5.07;;;;;;;3.79;62.78;99642.50;4502540;31;20104;-85
2022/01/15 07:08:18;;;;;;;17.60;5.43;;;;;;;4.02;62.09;99629.16;4502651;31;20431;-85
2022/01/15 07:10:43;;;;;;;15.70;5.12;;;;;;;3.93;62.09;99624.91;4502047;31;20088;-84
2022/01/15 07:13:09;;;;;;;14.85;4.93;;;;;;;4.01;61.75;99632.63;4502717;31;20089;-85
2022/01/15 07:15:35;;;;;;;14.75;5.43;;;;;;;3.89;62.01;99630.19;4502752;31;20100;-85
2022/01/15 07:18:01;;;;;;;15.20;5.25;;;;;;;4.02;61.66;99626.53;4488309;31;20440;-90
2022/01/15 07:20:27;;;;;;;14.60;5.07;;;;;;;4.16;61.22;99630.69;4502728;31;20136;-85
2022/01/15 07:22:53;;;;;;;17.65;5.65;;;;;;;4.30;60.64;99636.53;4488484;31;20098;-84
2022/01/15 07:25:18;;;;;;;13.23;5.18;;;;;;;4.02;61.46;99636.06;4502716;31;20406;-85
2022/01/15 07:27:45;;;;;;;16.25;5.62;;;;;;;4.05;60.95;99644.72;4475306;31;20158;-85
2022/01/15 07:30:12;;;;;;;14.32;4.97;;;;;;;4.08;60.97;99649.91;4488205;31;20072;-82
2022/01/15 07:32:38;;;;;;;14.43;5.00;;;;;;;4.07;60.84;99644.72;4475355;31;20076;-87
2022/01/15 07:35:04;;;;;;;17.60;6.72;;;;;;;3.99;61.08;99655.25;4488474;31;20099;-86
2022/01/15 07:37:31;;;;;;;14.27;5.20;;;;;;;3.98;61.33;99657.87;4488127;31;20490;-83
2022/01/15 07:39:57;;;;;;;18.92;5.87;;;;;;;4.09;61.06;99666.41;4488298;31;20171;-82
2022/01/15 07:42:23;;;;;;;14.50;5.43;;;;;;;3.85;61.64;99660.66;4475177;31;20091;-83
2022/01/15 07:44:48;;;;;;;16.92;5.37;;;;;;;4.37;60.38;99677.31;4488362;31;20107;-81
2022/01/15 07:47:16;;;;;;;14.20;5.45;;;;;;;4.14;60.52;99667.22;4475047;31;20131;-83
2022/01/15 07:49:42;;;;;;;15.30;5.12;;;;;;;4.13;60.42;99668.09;4475014;31;20106;-85
2022/01/15 07:52:07;;;;;;;15.30;5.28;;;;;;;4.37;59.81;99672.09;4488078;31;20088;-80
2022/01/15 07:54:33;;;;;;;16.45;5.53;;;;;;;4.45;59.46;99662.41;4502652;31;20436;-82
2022/01/15 07:56:58;;;;;;;17.40;4.82;;;;;;;4.45;59.23;99677.19;4467580;31;20401;-82
2022/01/15 07:59:24;;;;;;;16.15;5.68;;;;;;;4.61;58.74;99673.44;4486601;31;20121;-82
2022/01/15 08:01:50;;;;;;;14.05;5.05;;;;;;;4.62;58.16;99679.53;4487106;31;20083;-82
2022/01/15 08:04:15;;;;;;;13.55;4.90;;;;;;;4.69;57.99;99675.94;4487295;31;20142;-79
2022/01/15 08:06:41;;;;;;;17.37;4.80;;;;;;;4.48;58.56;99684.97;4487245;31;20092;-82
2022/01/15 08:09:07;;;;;;;15.43;5.50;;;;;;;4.66;58.29;99674.25;4490130;31;20221;-80
2022/01/15 08:11:32;;;;;;;15.98;4.80;;;;;;;4.57;58.32;99673.53;4485977;31;20100;-81
2022/01/15 08:13:58;;;;;;;15.45;5.18;;;;;;;4.72;57.75;99679.34;4486465;31;20112;-81
2022/01/15 08:16:23;;;;;;;13.68;4.75;;;;;;;4.61;57.87;99685.62;4487314;31;20432;-81
2022/01/15 08:18:49;;;;;;;16.30;5.18;;;;;;;4.52;58.21;99678.84;4491967;31;20152;-82
2022/01/15 08:21:14;;;;;;;12.98;4.40;;;;;;;4.48;58.40;99671.91;4486893;31;20087;-81
2022/01/15 08:23:39;;;;;;;16.55;4.55;;;;;;;4.53;57.93;99680.53;4487979;31;20375;-82
2022/01/15 08:26:05;;;;;;;13.88;3.90;;;;;;;4.55;57.79;99670.09;4489024;31;20461;-82
2022/01/15 08:28:30;;;;;;;15.48;4.72;;;;;;;4.40;58.05;99677.25;4489192;31;20100;-81
2022/01/15 08:30:57;;;;;;;11.75;4.55;;;;;;;4.38;57.48;99689.44;4493358;31;20360;-82
2022/01/15 08:33:22;;;;;;;13.65;4.25;;;;;;;4.54;57.36;99671.84;4489417;31;20826;-81
2022/01/15 08:35:48;;;;;;;16.37;4.20;;;;;;;4.82;56.45;99677.44;4487951;32;20105;-81
2022/01/15 08:38:13;;;;;;;16.90;4.03;;;;;;;4.49;56.92;99684.09;4489265;31;20088;-81
2022/01/15 08:40:39;;;;;;;15.02;4.00;;;;;;;4.79;56.43;99695.78;4495226;31;20072;-83
2022/01/15 08:43:05;;;;;;;14.95;4.15;;;;;;;4.57;56.64;99694.41;4488953;31;20104;-81
2022/01/15 08:45:30;;;;;;;12.73;4.05;;;;;;;4.70;56.32;99685.50;4490222;31;20115;-82
2022/01/15 08:47:56;;;;;;;12.77;3.80;;;;;;;4.71;56.38;99698.53;4488888;31;20446;-82
2022/01/15 08:50:22;;;;;;;12.75;3.83;;;;;;;4.71;56.14;99684.59;4486431;31;20089;-81
2022/01/15 08:52:48;;;;;;;13.13;4.35;;;;;;;5.00;55.23;99693.69;4488623;31;20134;-83
2022/01/15 08:55:14;;;;;;;13.68;4.20;;;;;;;5.12;54.73;99688.28;4475878;31;20100;-81
2022/01/15 08:57:40;;;;;;;12.57;4.15;;;;;;;5.10;54.67;99690.91;4501487;31;20483;-80
2022/01/15 09:00:09;;;;;;;10.63;3.62;;;;;;;5.17;54.30;99693.41;4492212;31;20119;-82
2022/01/15 09:02:34;;;;;;;15.50;4.35;;;;;;;5.09;54.44;99683.94;4488301;31;20100;-81
2022/01/15 09:05:02;;;;;;;15.02;4.32;;;;;;;5.12;54.87;99696.97;4503231;31;20431;-81
2022/01/15 09:07:27;;;;;;;11.82;3.62;;;;;;;5.39;54.19;99689.50;4489977;31;20119;-80
2022/01/15 09:09:52;;;;;;;11.43;3.33;;;;;;;5.15;54.40;99684.72;4499763;31;20439;-79
2022/01/15 09:12:21;;;;;;;16.45;4.05;;;;;;;5.00;54.76;99683.25;4488752;31;21026;-81
2022/01/15 09:14:46;;;;;;;12.75;3.60;;;;;;;5.10;55.10;99687.44;4475972;31;20108;-81
2022/01/15 09:17:12;;;;;;;14.30;4.15;;;;;;;5.37;54.17;99685.19;4503060;31;20099;-81
2022/01/15 09:19:37;;;;;;;15.20;3.85;;;;;;;5.47;53.79;99687.59;4475304;31;20096;-80
2022/01/15 09:22:06;;;;;;;16.35;4.53;;;;;;;5.42;54.00;99696.41;4498638;31;20444;-81
2022/01/15 09:24:32;;;;;;;13.27;4.00;;;;;;;5.37;54.44;99693.91;4473179;32;20184;-81
2022/01/15 09:32:07;;;;;;;12.45;3.97;;;;;;;5.56;52.94;99686.56;4491946;31;20138;-78
2022/01/15 09:34:34;;;;;;;13.18;3.47;;;;;;;5.64;52.79;99689.91;4487710;31;20206;-81
2022/01/15 09:37:01;;;;;;;14.57;3.78;;;;;;;5.87;52.23;99686.81;4488519;31;20114;-82
2022/01/15 09:39:26;;;;;;;12.68;3.62;;;;;;;5.62;52.37;99691.69;4488512;31;20194;-81
2022/01/15 09:41:54;;;;;;;12.85;3.20;;;;;;;5.76;52.02;99686.16;4499624;31;20162;-80
2022/01/15 09:44:20;;;;;;;;;;;;;;;5.98;51.36;99688.37;4473593;32;20108;-81
2022/01/15 09:46:46;;;;;;;12.25;3.50;;;;;;;5.97;51.22;99692.75;4486995;32;19984;-82
2022/01/15 09:49:14;;;;;;;12.60;3.30;;;;;;;6.05;50.88;99677.72;4488221;31;20132;-81
2022/01/15 09:51:39;;;;;;;12.80;3.58;;;;;;;6.02;50.88;99690.88;4486317;31;20109;-81
2022/01/15 09:54:05;;;;;;;11.48;3.45;;;;;;;5.94;51.15;99690.16;4491701;31;20135;-81
2022/01/15 09:56:30;;;;;;;12.15;3.65;;;;;;;5.85;51.40;99685.97;4495346;31;20084;-81
2022/01/15 09:58:58;;;;;;;15.68;3.55;;;;;;;6.10;51.12;99678.50;4488231;31;20106;-79
2022/01/15 10:01:27;;;;;;;14.97;3.70;;;;;;;6.07;51.16;99667.25;4487928;31;20127;-80
2022/01/15 10:03:52;;;;;;;12.35;3.62;;;;;;;6.16;50.89;99667.06;4488145;31;20201;-80
2022/01/15 10:06:18;;;;;;;14.27;3.30;;;;;;;6.40;50.14;99675.22;4502268;31;20107;-80
2022/01/15 10:09:01;;;;;;;12.13;3.30;;;;;;;6.29;50.41;99671.06;4488356;31;20109;-82
2022/01/15 10:11:43;;;;;;;12.10;3.35;;;;;;;6.24;50.54;99666.88;4487848;31;20092;-82
2022/01/15 10:14:31;;;;;;;12.20;3.65;;;;;;;6.38;50.13;99680.50;4492015;31;20429;-81
2022/01/15 10:16:58;;;;;;;13.60;3.35;;;;;;;6.41;49.58;99669.97;4488455;31;20112;-81
2022/01/15 10:19:29;;;;;;;13.40;3.57;;;;;;;6.35;49.61;99677.94;4488024;31;20110;-82
2022/01/15 10:22:13;;;;;;;11.60;3.58;;;;;;;6.15;49.83;99669.69;4490575;31;20103;-82
2022/01/15 10:24:40;;;;;;;12.20;3.80;;;;;;;6.21;49.73;99667.78;4488277;31;20145;-81
2022/01/15 10:27:18;;;;;;;9.52;2.80;;;;;;;6.19;49.39;99658.25;4488431;31;20159;-80
2022/01/15 10:29:56;;;;;;;11.50;2.83;;;;;;;5.93;49.49;99662.28;4489512;31;20111;-81
2022/01/15 10:32:26;;;;;;;12.13;2.90;;;;;;;6.12;49.49;99664.50;4496139;31;20097;-81
2022/01/15 10:34:52;;;;;;;9.80;2.78;;;;;;;6.03;49.36;99670.81;4488617;31;20885;-81
2022/01/15 10:37:23;;;;;;;9.50;2.92;;;;;;;5.72;49.54;99663.59;4490347;31;20376;-81
2022/01/15 10:39:54;;;;;;;15.05;3.45;;;;;;;6.22;49.15;99669.53;4486985;32;20102;-82
2022/01/15 10:42:23;;;;;;;12.77;3.00;;;;;;;6.22;48.25;99659.06;4488067;31;20139;-83
2022/01/15 10:44:51;;;;;;;12.30;2.55;;;;;;;6.32;47.76;99649.22;4479268;32;20144;-84
2022/01/15 10:47:18;;;;;;;10.75;2.92;;;;;;;6.20;47.89;99639.91;4486109;32;20088;-83
2022/01/15 10:49:44;;;;;;;10.10;2.67;;;;;;;6.07;47.80;99644.56;4473021;32;20084;-85
2022/01/15 10:52:19;;;;;;;14.65;3.45;;;;;;;6.37;47.61;99636.03;4487195;32;20126;-84
2022/01/15 10:55:03;;;;;;;12.13;3.17;;;;;;;6.41;47.68;99640.28;4472686;32;20108;-84
2022/01/15 10:57:34;;;;;;;14.02;2.90;;;;;;;5.97;48.26;99635.19;4487298;32;20084;-84
2022/01/15 11:00:07;;;;;;;12.23;3.35;;;;;;;6.19;48.14;99632.09;4487161;32;20079;-84
2022/01/15 11:02:33;;;;;;;10.98;2.92;;;;;;;6.21;47.80;99638.16;4459785;32;20101;-84
2022/01/15 11:05:00;;;;;;;12.00;3.17;;;;;;;6.11;48.65;99642.72;4487182;32;20122;-84
2022/01/15 11:07:25;;;;;;;20.27;3.25;;;;;;;5.95;48.57;99625.63;4487199;32;20093;-84
2022/01/15 11:09:51;;;;;;;11.75;2.83;;;;;;;6.34;47.97;99625.66;4472850;32;20100;-85
2022/01/15 11:12:18;;;;;;;15.40;3.00;;;;;;;6.37;47.83;99620.31;4487260;32;20104;-84
2022/01/15 11:14:44;;;;;;;9.45;2.33;;;;;;;6.31;48.08;99621.34;4473080;32;20104;-84
2022/01/15 11:17:09;;;;;;;13.55;3.25;;;;;;;6.24;48.40;99619.78;4487187;32;20149;-84
2022/01/15 11:19:35;;;;;;;12.93;2.50;;;;;;;6.10;48.80;99623.56;4487012;32;20344;-84
2022/01/15 11:22:03;;;;;;;11.82;2.70;;;;;;;5.96;49.24;99624.78;4486947;32;20104;-84
2022/01/15 11:24:28;;;;;;;10.55;2.37;;;;;;;6.24;48.83;99617.16;4472796;32;20096;-84
2022/01/15 11:27:00;;;;;;;10.90;2.72;;;;;;;6.51;48.33;99623.47;4486955;32;20500;-84
2022/01/15 11:29:26;;;;;;;12.27;2.58;;;;;;;6.45;47.56;99624.50;4472913;32;20452;-84
2022/01/15 11:31:56;;;;;;;10.90;2.55;;;;;;;6.35;47.57;99630.81;4473030;32;20085;-84
2022/01/15 11:34:23;;;;;;;9.25;2.10;;;;;;;6.47;46.81;99627.94;4472985;32;20099;-84
2022/01/15 11:36:49;;;;;;;10.43;2.30;;;;;;;6.73;46.23;99636.03;4472724;32;20691;-84
2022/01/15 11:39:22;;;;;;;15.20;3.00;;;;;;;6.77;46.52;99622.81;4486809;32;20132;-84
2022/01/15 11:41:55;;;;;;;9.23;2.45;;;;;;;6.79;46.75;99625.41;4472542;32;20131;-84
2022/01/15 11:44:38;;;;;;;9.48;2.42;;;;;;;7.14;45.86;99607.88;4486918;32;20088;-85
2022/01/15 11:47:17;;;;;;;14.85;2.97;;;;;;;7.12;45.75;99615.78;4472471;32;20163;-85
2022/01/15 11:49:46;;;;;;;11.40;3.15;;;;;;;7.22;45.44;99614.66;4472776;32;20439;-84
2022/01/15 11:52:13;;;;;;;13.23;2.90;;;;;;;7.22;45.29;99609.41;4472451;32;20153;-84
2022/01/15 11:54:40;;;;;;;14.80;2.78;;;;;;;7.39;44.85;99611.53;4472444;32;20113;-84
2022/01/15 11:57:22;;;;;;;9.43;2.10;;;;;;;6.84;46.15;99613.06;4459137;32;20088;-84